sensor_id;sensor_type;location;lat;lon;timestamp;P1;durP1;ratioP1;P2;durP2;ratioP2
74612;SDS011;63119;51.788;8.824;2023-02-02T00:00:11;16.63;;;3.13;;
74612;SDS011;63119;51.788;8.824;2023-02-02T00:02:36;9.82;;;2.70;;
74612;SDS011;63119;51.788;8.824;2023-02-02T00:05:03;11.30;;;2.42;;
74612;SDS011;63119;51.788;8.824;2023-02-02T00:07:28;13.20;;;2.40;;
74612;SDS011;63119;51.788;8.824;2023-02-02T00:09:53;11.00;;;3.00;;
74612;SDS011;63119;51.788;8.824;2023-02-02T00:12:19;12.53;;;2.63;;
74612;SDS011;63119;51.788;8.824;2023-02-02T00:14:44;14.43;;;2.97;;
74612;SDS011;63119;51.788;8.824;2023-02-02T00:17:09;10.83;;;2.23;;
74612;SDS011;63119;51.788;8.824;2023-02-02T00:19:35;13.73;;;2.60;;
74612;SDS011;63119;51.788;8.824;2023-02-02T00:22:00;10.88;;;2.03;;
74612;SDS011;63119;51.788;8.824;2023-02-02T00:24:25;11.90;;;2.20;;
74612;SDS011;63119;51.788;8.824;2023-02-02T00:26:54;11.17;;;2.47;;
74612;SDS011;63119;51.788;8.824;2023-02-02T00:29:22;12.98;;;2.03;;
74612;SDS011;63119;51.788;8.824;2023-02-02T00:31:52;8.13;;;2.35;;
74612;SDS011;63119;51.788;8.824;2023-02-02T00:34:18;8.57;;;2.10;;
74612;SDS011;63119;51.788;8.824;2023-02-02T00:36:44;11.07;;;1.95;;
74612;SDS011;63119;51.788;8.824;2023-02-02T00:39:10;10.98;;;2.28;;
74612;SDS011;63119;51.788;8.824;2023-02-02T00:41:39;18.05;;;2.40;;
74612;SDS011;63119;51.788;8.824;2023-02-02T00:44:05;7.50;;;2.00;;
74612;SDS011;63119;51.788;8.824;2023-02-02T00:46:48;10.77;;;1.92;;
74612;SDS011;63119;51.788;8.824;2023-02-02T00:49:14;15.80;;;1.97;;
74612;SDS011;63119;51.788;8.824;2023-02-02T00:51:39;12.20;;;2.27;;
74612;SDS011;63119;51.788;8.824;2023-02-02T00:54:04;8.80;;;2.10;;
74612;SDS011;63119;51.788;8.824;2023-02-02T00:56:29;14.83;;;3.47;;
74612;SDS011;63119;51.788;8.824;2023-02-02T00:58:55;10.93;;;1.73;;
74612;SDS011;63119;51.788;8.824;2023-02-02T01:01:20;12.40;;;2.43;;
74612;SDS011;63119;51.788;8.824;2023-02-02T01:03:47;9.40;;;1.80;;
74612;SDS011;63119;51.788;8.824;2023-02-02T01:06:15;6.18;;;2.13;;
74612;SDS011;63119;51.788;8.824;2023-02-02T01:08:41;6.15;;;1.48;;
74612;SDS011;63119;51.788;8.824;2023-02-02T01:11:07;12.27;;;2.20;;
74612;SDS011;63119;51.788;8.824;2023-02-02T01:13:32;8.18;;;1.90;;
74612;SDS011;63119;51.788;8.824;2023-02-02T01:15:58;11.05;;;2.28;;
74612;SDS011;63119;51.788;8.824;2023-02-02T01:18:25;10.20;;;2.58;;
74612;SDS011;63119;51.788;8.824;2023-02-02T01:21:00;9.95;;;2.00;;
74612;SDS011;63119;51.788;8.824;2023-02-02T01:23:30;7.10;;;1.73;;
74612;SDS011;63119;51.788;8.824;2023-02-02T01:25:56;10.90;;;1.60;;
74612;SDS011;63119;51.788;8.824;2023-02-02T01:28:24;11.77;;;2.95;;
74612;SDS011;63119;51.788;8.824;2023-02-02T01:30:50;10.25;;;1.60;;
74612;SDS011;63119;51.788;8.824;2023-02-02T01:33:16;10.13;;;2.13;;
74612;SDS011;63119;51.788;8.824;2023-02-02T01:35:49;8.63;;;1.50;;
74612;SDS011;63119;51.788;8.824;2023-02-02T01:38:18;13.20;;;2.55;;
74612;SDS011;63119;51.788;8.824;2023-02-02T01:40:45;12.88;;;2.08;;
74612;SDS011;63119;51.788;8.824;2023-02-02T01:43:21;12.60;;;2.25;;
74612;SDS011;63119;51.788;8.824;2023-02-02T01:45:49;10.10;;;1.50;;
74612;SDS011;63119;51.788;8.824;2023-02-02T01:48:15;12.27;;;2.10;;
74612;SDS011;63119;51.788;8.824;2023-02-02T01:50:42;7.82;;;1.80;;
74612;SDS011;63119;51.788;8.824;2023-02-02T01:53:07;12.10;;;1.98;;
74612;SDS011;63119;51.788;8.824;2023-02-02T01:55:34;8.82;;;1.58;;
74612;SDS011;63119;51.788;8.824;2023-02-02T01:58:03;8.15;;;1.25;;
74612;SDS011;63119;51.788;8.824;2023-02-02T02:00:34;8.70;;;1.88;;
74612;SDS011;63119;51.788;8.824;2023-02-02T02:03:01;7.28;;;1.70;;
74612;SDS011;63119;51.788;8.824;2023-02-02T02:05:36;10.45;;;2.17;;
74612;SDS011;63119;51.788;8.824;2023-02-02T02:08:11;13.07;;;2.22;;
74612;SDS011;63119;51.788;8.824;2023-02-02T02:10:41;11.20;;;1.65;;
74612;SDS011;63119;51.788;8.824;2023-02-02T02:13:06;4.53;;;1.20;;
74612;SDS011;63119;51.788;8.824;2023-02-02T02:15:32;13.93;;;1.73;;
74612;SDS011;63119;51.788;8.824;2023-02-02T02:18:29;10.85;;;1.80;;
74612;SDS011;63119;51.788;8.824;2023-02-02T02:21:11;11.38;;;2.05;;
74612;SDS011;63119;51.788;8.824;2023-02-02T02:32:56;8.82;;;1.33;;
74612;SDS011;63119;51.788;8.824;2023-02-02T02:38:17;9.93;;;1.90;;
74612;SDS011;63119;51.788;8.824;2023-02-02T02:40:50;3.92;;;1.63;;
74612;SDS011;63119;51.788;8.824;2023-02-02T02:43:21;5.65;;;1.38;;
74612;SDS011;63119;51.788;8.824;2023-02-02T02:45:51;8.27;;;1.38;;
74612;SDS011;63119;51.788;8.824;2023-02-02T02:48:16;7.77;;;1.83;;
74612;SDS011;63119;51.788;8.824;2023-02-02T02:50:42;10.13;;;2.47;;
74612;SDS011;63119;51.788;8.824;2023-02-02T02:53:08;4.53;;;1.63;;
74612;SDS011;63119;51.788;8.824;2023-02-02T02:55:45;6.95;;;1.80;;
74612;SDS011;63119;51.788;8.824;2023-02-02T02:58:15;6.00;;;1.60;;
74612;SDS011;63119;51.788;8.824;2023-02-02T03:00:58;7.93;;;1.20;;
74612;SDS011;63119;51.788;8.824;2023-02-02T03:03:45;9.38;;;1.50;;
74612;SDS011;63119;51.788;8.824;2023-02-02T03:09:18;12.02;;;1.90;;
74612;SDS011;63119;51.788;8.824;2023-02-02T03:11:47;5.28;;;1.20;;
74612;SDS011;63119;51.788;8.824;2023-02-02T03:14:12;7.40;;;1.50;;
74612;SDS011;63119;51.788;8.824;2023-02-02T03:16:37;7.20;;;1.57;;
74612;SDS011;63119;51.788;8.824;2023-02-02T03:19:03;6.15;;;1.75;;
74612;SDS011;63119;51.788;8.824;2023-02-02T03:21:30;5.18;;;1.15;;
74612;SDS011;63119;51.788;8.824;2023-02-02T03:23:56;9.30;;;1.35;;
74612;SDS011;63119;51.788;8.824;2023-02-02T03:26:21;4.93;;;1.20;;
74612;SDS011;63119;51.788;8.824;2023-02-02T03:28:47;3.88;;;1.63;;
74612;SDS011;63119;51.788;8.824;2023-02-02T03:31:14;8.82;;;1.23;;
74612;SDS011;63119;51.788;8.824;2023-02-02T03:33:39;5.50;;;1.33;;
74612;SDS011;63119;51.788;8.824;2023-02-02T03:36:05;4.78;;;1.35;;
74612;SDS011;63119;51.788;8.824;2023-02-02T03:38:30;10.27;;;1.33;;
74612;SDS011;63119;51.788;8.824;2023-02-02T03:40:56;16.50;;;2.03;;
74612;SDS011;63119;51.788;8.824;2023-02-02T03:43:21;8.33;;;1.80;;
74612;SDS011;63119;51.788;8.824;2023-02-02T03:45:54;6.35;;;1.27;;
74612;SDS011;63119;51.788;8.824;2023-02-02T03:48:23;10.90;;;2.15;;
74612;SDS011;63119;51.788;8.824;2023-02-02T03:50:48;9.00;;;1.83;;
74612;SDS011;63119;51.788;8.824;2023-02-02T03:53:14;5.23;;;1.87;;
74612;SDS011;63119;51.788;8.824;2023-02-02T03:55:39;5.47;;;1.90;;
74612;SDS011;63119;51.788;8.824;2023-02-02T03:58:05;6.85;;;2.03;;
74612;SDS011;63119;51.788;8.824;2023-02-02T04:00:30;8.30;;;1.80;;
74612;SDS011;63119;51.788;8.824;2023-02-02T04:02:56;10.03;;;2.30;;
74612;SDS011;63119;51.788;8.824;2023-02-02T04:05:21;7.57;;;1.87;;
74612;SDS011;63119;51.788;8.824;2023-02-02T04:07:46;12.80;;;2.63;;
74612;SDS011;63119;51.788;8.824;2023-02-02T04:10:13;7.50;;;1.67;;
74612;SDS011;63119;51.788;8.824;2023-02-02T04:12:38;9.40;;;1.83;;
74612;SDS011;63119;51.788;8.824;2023-02-02T04:15:03;6.70;;;2.00;;
74612;SDS011;63119;51.788;8.824;2023-02-02T04:17:29;8.23;;;3.05;;
74612;SDS011;63119;51.788;8.824;2023-02-02T04:19:54;11.53;;;2.70;;
74612;SDS011;63119;51.788;8.824;2023-02-02T04:22:22;7.50;;;2.90;;
74612;SDS011;63119;51.788;8.824;2023-02-02T04:24:48;9.20;;;2.97;;
74612;SDS011;63119;51.788;8.824;2023-02-02T04:27:13;6.37;;;3.20;;
74612;SDS011;63119;51.788;8.824;2023-02-02T04:29:38;10.60;;;2.90;;
74612;SDS011;63119;51.788;8.824;2023-02-02T04:32:03;9.07;;;2.90;;
74612;SDS011;63119;51.788;8.824;2023-02-02T04:34:29;9.40;;;3.30;;
74612;SDS011;63119;51.788;8.824;2023-02-02T04:36:54;11.67;;;3.03;;
74612;SDS011;63119;51.788;8.824;2023-02-02T04:39:20;10.00;;;2.95;;
74612;SDS011;63119;51.788;8.824;2023-02-02T04:41:45;11.57;;;2.80;;
74612;SDS011;63119;51.788;8.824;2023-02-02T04:44:14;10.80;;;2.70;;
74612;SDS011;63119;51.788;8.824;2023-02-02T04:46:40;8.48;;;3.47;;
74612;SDS011;63119;51.788;8.824;2023-02-02T04:49:07;10.05;;;3.50;;
74612;SDS011;63119;51.788;8.824;2023-02-02T04:51:34;10.75;;;2.72;;
74612;SDS011;63119;51.788;8.824;2023-02-02T04:53:59;6.97;;;2.60;;
74612;SDS011;63119;51.788;8.824;2023-02-02T04:56:24;10.73;;;2.60;;
74612;SDS011;63119;51.788;8.824;2023-02-02T04:58:52;10.87;;;3.83;;
74612;SDS011;63119;51.788;8.824;2023-02-02T05:01:18;9.02;;;2.58;;
74612;SDS011;63119;51.788;8.824;2023-02-02T05:03:44;14.15;;;3.22;;
74612;SDS011;63119;51.788;8.824;2023-02-02T05:06:10;9.02;;;2.42;;
74612;SDS011;63119;51.788;8.824;2023-02-02T05:08:36;13.75;;;2.92;;
74612;SDS011;63119;51.788;8.824;2023-02-02T05:11:05;9.75;;;2.47;;
74612;SDS011;63119;51.788;8.824;2023-02-02T05:13:31;11.77;;;2.80;;
74612;SDS011;63119;51.788;8.824;2023-02-02T05:15:57;13.80;;;2.93;;
74612;SDS011;63119;51.788;8.824;2023-02-02T05:18:22;11.33;;;3.37;;
74612;SDS011;63119;51.788;8.824;2023-02-02T05:20:49;10.20;;;2.72;;
74612;SDS011;63119;51.788;8.824;2023-02-02T05:23:15;11.73;;;2.78;;
74612;SDS011;63119;51.788;8.824;2023-02-02T05:25:40;9.67;;;2.80;;
74612;SDS011;63119;51.788;8.824;2023-02-02T05:28:05;8.90;;;2.53;;
74612;SDS011;63119;51.788;8.824;2023-02-02T05:30:30;10.80;;;3.10;;
74612;SDS011;63119;51.788;8.824;2023-02-02T05:32:56;11.57;;;2.87;;
74612;SDS011;63119;51.788;8.824;2023-02-02T05:35:21;9.50;;;2.90;;
74612;SDS011;63119;51.788;8.824;2023-02-02T05:37:46;10.63;;;2.80;;
74612;SDS011;63119;51.788;8.824;2023-02-02T05:40:11;8.37;;;1.80;;
74612;SDS011;63119;51.788;8.824;2023-02-02T05:42:37;7.03;;;2.65;;
74612;SDS011;63119;51.788;8.824;2023-02-02T05:45:02;9.87;;;3.13;;
74612;SDS011;63119;51.788;8.824;2023-02-02T05:47:28;8.25;;;2.08;;
74612;SDS011;63119;51.788;8.824;2023-02-02T05:49:53;7.00;;;2.28;;
74612;SDS011;63119;51.788;8.824;2023-02-02T05:52:19;5.67;;;1.90;;
74612;SDS011;63119;51.788;8.824;2023-02-02T05:54:47;10.82;;;2.40;;
74612;SDS011;63119;51.788;8.824;2023-02-02T05:57:12;9.67;;;2.47;;
74612;SDS011;63119;51.788;8.824;2023-02-02T05:59:37;10.57;;;2.47;;
74612;SDS011;63119;51.788;8.824;2023-02-02T06:02:03;8.77;;;2.40;;
74612;SDS011;63119;51.788;8.824;2023-02-02T06:04:28;8.47;;;2.20;;
74612;SDS011;63119;51.788;8.824;2023-02-02T06:06:53;11.57;;;2.00;;
74612;SDS011;63119;51.788;8.824;2023-02-02T06:09:18;9.73;;;2.80;;
74612;SDS011;63119;51.788;8.824;2023-02-02T06:11:44;9.10;;;2.60;;
74612;SDS011;63119;51.788;8.824;2023-02-02T06:14:09;10.47;;;2.70;;
74612;SDS011;63119;51.788;8.824;2023-02-02T06:16:34;13.33;;;2.93;;
74612;SDS011;63119;51.788;8.824;2023-02-02T06:19:00;6.95;;;2.55;;
74612;SDS011;63119;51.788;8.824;2023-02-02T06:21:25;7.27;;;2.33;;
74612;SDS011;63119;51.788;8.824;2023-02-02T06:23:51;6.03;;;2.03;;
74612;SDS011;63119;51.788;8.824;2023-02-02T06:26:16;12.68;;;2.92;;
74612;SDS011;63119;51.788;8.824;2023-02-02T06:28:42;10.93;;;2.47;;
74612;SDS011;63119;51.788;8.824;2023-02-02T06:31:13;5.35;;;1.77;;
74612;SDS011;63119;51.788;8.824;2023-02-02T06:33:42;7.95;;;2.30;;
74612;SDS011;63119;51.788;8.824;2023-02-02T06:36:08;15.23;;;1.77;;
74612;SDS011;63119;51.788;8.824;2023-02-02T06:38:33;9.03;;;2.00;;
74612;SDS011;63119;51.788;8.824;2023-02-02T06:40:59;6.20;;;1.77;;
74612;SDS011;63119;51.788;8.824;2023-02-02T06:43:25;4.50;;;1.33;;
74612;SDS011;63119;51.788;8.824;2023-02-02T06:45:50;6.50;;;2.03;;
74612;SDS011;63119;51.788;8.824;2023-02-02T06:48:16;8.40;;;1.73;;
74612;SDS011;63119;51.788;8.824;2023-02-02T06:50:41;6.57;;;2.13;;
74612;SDS011;63119;51.788;8.824;2023-02-02T06:53:06;6.35;;;1.63;;
74612;SDS011;63119;51.788;8.824;2023-02-02T06:55:32;6.47;;;1.40;;
74612;SDS011;63119;51.788;8.824;2023-02-02T06:57:57;6.10;;;1.40;;
74612;SDS011;63119;51.788;8.824;2023-02-02T07:00:23;6.32;;;1.60;;
74612;SDS011;63119;51.788;8.824;2023-02-02T07:02:49;13.77;;;1.63;;
74612;SDS011;63119;51.788;8.824;2023-02-02T07:05:14;10.30;;;1.40;;
74612;SDS011;63119;51.788;8.824;2023-02-02T07:07:40;10.80;;;1.60;;
74612;SDS011;63119;51.788;8.824;2023-02-02T07:10:05;8.80;;;1.67;;
74612;SDS011;63119;51.788;8.824;2023-02-02T07:12:31;7.30;;;1.90;;
74612;SDS011;63119;51.788;8.824;2023-02-02T07:14:56;5.53;;;1.50;;
74612;SDS011;63119;51.788;8.824;2023-02-02T07:17:23;6.68;;;1.75;;
74612;SDS011;63119;51.788;8.824;2023-02-02T07:19:48;6.17;;;1.30;;
74612;SDS011;63119;51.788;8.824;2023-02-02T07:22:13;8.90;;;1.03;;
74612;SDS011;63119;51.788;8.824;2023-02-02T07:24:40;4.45;;;1.02;;
74612;SDS011;63119;51.788;8.824;2023-02-02T07:27:05;4.33;;;1.13;;
74612;SDS011;63119;51.788;8.824;2023-02-02T07:29:30;4.37;;;1.00;;
74612;SDS011;63119;51.788;8.824;2023-02-02T07:31:55;4.65;;;1.10;;
74612;SDS011;63119;51.788;8.824;2023-02-02T07:34:21;6.37;;;0.83;;
74612;SDS011;63119;51.788;8.824;2023-02-02T07:36:46;7.13;;;1.47;;
74612;SDS011;63119;51.788;8.824;2023-02-02T07:39:11;3.70;;;1.30;;
74612;SDS011;63119;51.788;8.824;2023-02-02T07:41:37;5.75;;;1.20;;
74612;SDS011;63119;51.788;8.824;2023-02-02T07:44:02;3.53;;;0.90;;
74612;SDS011;63119;51.788;8.824;2023-02-02T07:46:28;11.48;;;1.35;;
74612;SDS011;63119;51.788;8.824;2023-02-02T07:48:54;5.05;;;0.93;;
74612;SDS011;63119;51.788;8.824;2023-02-02T07:51:21;7.22;;;1.10;;
74612;SDS011;63119;51.788;8.824;2023-02-02T07:53:48;2.65;;;1.00;;
74612;SDS011;63119;51.788;8.824;2023-02-02T07:58:42;3.78;;;1.00;;
74612;SDS011;63119;51.788;8.824;2023-02-02T08:01:08;4.05;;;0.93;;
74612;SDS011;63119;51.788;8.824;2023-02-02T08:03:37;5.47;;;1.08;;
74612;SDS011;63119;51.788;8.824;2023-02-02T08:06:10;5.95;;;1.10;;
74612;SDS011;63119;51.788;8.824;2023-02-02T08:08:38;4.13;;;0.80;;
74612;SDS011;63119;51.788;8.824;2023-02-02T08:11:03;3.92;;;0.80;;
74612;SDS011;63119;51.788;8.824;2023-02-02T08:13:31;4.47;;;0.90;;
74612;SDS011;63119;51.788;8.824;2023-02-02T08:15:57;3.70;;;1.10;;
74612;SDS011;63119;51.788;8.824;2023-02-02T08:18:22;3.05;;;1.25;;
74612;SDS011;63119;51.788;8.824;2023-02-02T08:20:47;5.40;;;0.87;;
74612;SDS011;63119;51.788;8.824;2023-02-02T08:23:13;7.10;;;1.17;;
74612;SDS011;63119;51.788;8.824;2023-02-02T08:25:40;3.15;;;0.80;;
74612;SDS011;63119;51.788;8.824;2023-02-02T08:28:06;3.83;;;0.80;;
74612;SDS011;63119;51.788;8.824;2023-02-02T08:30:31;3.73;;;0.93;;
74612;SDS011;63119;51.788;8.824;2023-02-02T08:32:58;3.85;;;1.00;;
74612;SDS011;63119;51.788;8.824;2023-02-02T08:35:23;3.77;;;1.30;;
74612;SDS011;63119;51.788;8.824;2023-02-02T08:37:49;3.72;;;0.82;;
74612;SDS011;63119;51.788;8.824;2023-02-02T08:40:14;4.78;;;0.95;;
74612;SDS011;63119;51.788;8.824;2023-02-02T08:42:39;3.43;;;1.13;;
74612;SDS011;63119;51.788;8.824;2023-02-02T08:45:05;4.33;;;1.10;;
74612;SDS011;63119;51.788;8.824;2023-02-02T08:47:30;5.90;;;1.42;;
74612;SDS011;63119;51.788;8.824;2023-02-02T08:49:56;7.30;;;1.17;;
74612;SDS011;63119;51.788;8.824;2023-02-02T08:52:21;5.17;;;1.07;;
74612;SDS011;63119;51.788;8.824;2023-02-02T08:54:46;6.93;;;1.27;;
74612;SDS011;63119;51.788;8.824;2023-02-02T08:57:12;6.60;;;1.53;;
74612;SDS011;63119;51.788;8.824;2023-02-02T08:59:37;3.70;;;1.47;;
74612;SDS011;63119;51.788;8.824;2023-02-02T09:02:02;5.93;;;1.63;;
74612;SDS011;63119;51.788;8.824;2023-02-02T09:04:27;4.73;;;1.87;;
74612;SDS011;63119;51.788;8.824;2023-02-02T09:06:53;7.63;;;1.95;;
74612;SDS011;63119;51.788;8.824;2023-02-02T09:09:18;4.60;;;1.53;;
74612;SDS011;63119;51.788;8.824;2023-02-02T09:11:43;5.53;;;1.77;;
74612;SDS011;63119;51.788;8.824;2023-02-02T09:14:09;4.95;;;1.42;;
74612;SDS011;63119;51.788;8.824;2023-02-02T09:16:36;5.28;;;1.77;;
74612;SDS011;63119;51.788;8.824;2023-02-02T09:19:02;8.23;;;2.03;;
74612;SDS011;63119;51.788;8.824;2023-02-02T09:21:28;7.82;;;2.03;;
74612;SDS011;63119;51.788;8.824;2023-02-02T09:23:53;4.68;;;1.77;;
74612;SDS011;63119;51.788;8.824;2023-02-02T09:26:25;8.07;;;1.80;;
74612;SDS011;63119;51.788;8.824;2023-02-02T09:28:56;7.43;;;1.98;;
74612;SDS011;63119;51.788;8.824;2023-02-02T09:31:24;7.45;;;2.13;;
74612;SDS011;63119;51.788;8.824;2023-02-02T09:33:50;4.13;;;1.75;;
74612;SDS011;63119;51.788;8.824;2023-02-02T09:36:20;4.13;;;1.60;;
74612;SDS011;63119;51.788;8.824;2023-02-02T09:38:47;5.07;;;2.00;;
74612;SDS011;63119;51.788;8.824;2023-02-02T09:47:03;3.55;;;1.30;;
74612;SDS011;63119;51.788;8.824;2023-02-02T09:49:53;5.07;;;1.30;;
74612;SDS011;63119;51.788;8.824;2023-02-02T09:55:14;5.10;;;1.30;;
74612;SDS011;63119;51.788;8.824;2023-02-02T09:57:49;5.55;;;1.73;;
74612;SDS011;63119;51.788;8.824;2023-02-02T10:00:25;4.07;;;1.60;;
74612;SDS011;63119;51.788;8.824;2023-02-02T10:05:23;8.45;;;3.30;;
74612;SDS011;63119;51.788;8.824;2023-02-02T10:07:54;6.97;;;2.83;;
74612;SDS011;63119;51.788;8.824;2023-02-02T10:10:26;12.55;;;6.65;;
74612;SDS011;63119;51.788;8.824;2023-02-02T10:12:58;6.38;;;2.50;;
74612;SDS011;63119;51.788;8.824;2023-02-02T10:16:03;4.68;;;1.23;;
74612;SDS011;63119;51.788;8.824;2023-02-02T10:24:06;5.80;;;2.20;;
74612;SDS011;63119;51.788;8.824;2023-02-02T10:26:45;9.63;;;2.15;;
74612;SDS011;63119;51.788;8.824;2023-02-02T10:32:00;5.97;;;3.03;;
74612;SDS011;63119;51.788;8.824;2023-02-02T10:40:04;6.50;;;2.83;;
74612;SDS011;63119;51.788;8.824;2023-02-02T10:46:11;5.03;;;2.30;;
74612;SDS011;63119;51.788;8.824;2023-02-02T10:48:42;5.82;;;2.40;;
74612;SDS011;63119;51.788;8.824;2023-02-02T10:51:31;6.97;;;2.15;;
74612;SDS011;63119;51.788;8.824;2023-02-02T10:53:56;5.38;;;3.00;;
74612;SDS011;63119;51.788;8.824;2023-02-02T10:56:25;9.07;;;3.28;;
74612;SDS011;63119;51.788;8.824;2023-02-02T10:59:10;9.93;;;4.90;;
74612;SDS011;63119;51.788;8.824;2023-02-02T11:01:41;9.65;;;2.67;;
74612;SDS011;63119;51.788;8.824;2023-02-02T11:04:08;3.60;;;1.58;;
74612;SDS011;63119;51.788;8.824;2023-02-02T11:06:53;6.88;;;1.92;;
74612;SDS011;63119;51.788;8.824;2023-02-02T11:09:20;2.53;;;1.77;;
74612;SDS011;63119;51.788;8.824;2023-02-02T11:11:52;3.80;;;1.70;;
74612;SDS011;63119;51.788;8.824;2023-02-02T11:17:16;3.95;;;1.55;;
74612;SDS011;63119;51.788;8.824;2023-02-02T11:19:45;5.28;;;1.48;;
74612;SDS011;63119;51.788;8.824;2023-02-02T11:22:22;5.60;;;1.77;;
74612;SDS011;63119;51.788;8.824;2023-02-02T11:24:50;6.13;;;1.30;;
74612;SDS011;63119;51.788;8.824;2023-02-02T11:37:33;7.00;;;2.63;;
74612;SDS011;63119;51.788;8.824;2023-02-02T11:42:50;9.82;;;2.72;;
74612;SDS011;63119;51.788;8.824;2023-02-02T11:45:16;6.13;;;2.63;;
74612;SDS011;63119;51.788;8.824;2023-02-02T11:47:44;7.03;;;2.92;;
74612;SDS011;63119;51.788;8.824;2023-02-02T11:50:22;12.52;;;5.57;;
74612;SDS011;63119;51.788;8.824;2023-02-02T11:52:51;6.35;;;2.65;;
74612;SDS011;63119;51.788;8.824;2023-02-02T11:55:17;5.28;;;3.33;;
74612;SDS011;63119;51.788;8.824;2023-02-02T11:58:09;6.85;;;2.20;;
74612;SDS011;63119;51.788;8.824;2023-02-02T12:00:41;5.38;;;1.48;;
74612;SDS011;63119;51.788;8.824;2023-02-02T12:03:28;8.57;;;3.58;;
74612;SDS011;63119;51.788;8.824;2023-02-02T12:05:53;8.25;;;4.05;;
74612;SDS011;63119;51.788;8.824;2023-02-02T12:08:19;13.45;;;7.80;;
74612;SDS011;63119;51.788;8.824;2023-02-02T12:19:12;13.57;;;5.15;;
74612;SDS011;63119;51.788;8.824;2023-02-02T12:21:57;6.63;;;3.83;;
74612;SDS011;63119;51.788;8.824;2023-02-02T12:24:34;6.60;;;2.22;;
74612;SDS011;63119;51.788;8.824;2023-02-02T12:27:10;5.10;;;2.00;;
74612;SDS011;63119;51.788;8.824;2023-02-02T12:47:35;11.65;;;2.15;;
74612;SDS011;63119;51.788;8.824;2023-02-02T12:53:02;7.30;;;1.60;;
74612;SDS011;63119;51.788;8.824;2023-02-02T12:55:46;5.35;;;1.75;;
74612;SDS011;63119;51.788;8.824;2023-02-02T12:58:18;6.93;;;1.83;;
74612;SDS011;63119;51.788;8.824;2023-02-02T13:01:13;6.03;;;1.83;;
74612;SDS011;63119;51.788;8.824;2023-02-02T13:03:52;7.50;;;3.53;;
74612;SDS011;63119;51.788;8.824;2023-02-02T13:09:03;8.60;;;3.63;;
74612;SDS011;63119;51.788;8.824;2023-02-02T13:11:48;10.15;;;5.45;;
74612;SDS011;63119;51.788;8.824;2023-02-02T13:14:22;9.40;;;3.35;;
74612;SDS011;63119;51.788;8.824;2023-02-02T13:17:14;7.28;;;3.75;;
74612;SDS011;63119;51.788;8.824;2023-02-02T13:19:44;11.05;;;4.60;;
74612;SDS011;63119;51.788;8.824;2023-02-02T13:22:14;10.75;;;3.92;;
74612;SDS011;63119;51.788;8.824;2023-02-02T13:24:44;6.40;;;3.72;;
74612;SDS011;63119;51.788;8.824;2023-02-02T13:27:14;9.65;;;4.53;;
74612;SDS011;63119;51.788;8.824;2023-02-02T13:29:44;9.13;;;4.18;;
74612;SDS011;63119;51.788;8.824;2023-02-02T13:32:24;7.72;;;4.30;;
74612;SDS011;63119;51.788;8.824;2023-02-02T13:45:34;11.50;;;3.67;;
74612;SDS011;63119;51.788;8.824;2023-02-02T13:48:05;5.90;;;3.40;;
74612;SDS011;63119;51.788;8.824;2023-02-02T13:56:43;7.63;;;4.00;;
74612;SDS011;63119;51.788;8.824;2023-02-02T14:02:10;9.95;;;3.70;;
74612;SDS011;63119;51.788;8.824;2023-02-02T14:04:52;10.15;;;3.90;;
74612;SDS011;63119;51.788;8.824;2023-02-02T14:07:43;9.38;;;3.47;;
74612;SDS011;63119;51.788;8.824;2023-02-02T14:10:31;12.77;;;4.53;;
74612;SDS011;63119;51.788;8.824;2023-02-02T14:13:35;9.38;;;4.10;;
74612;SDS011;63119;51.788;8.824;2023-02-02T14:16:41;9.32;;;3.78;;
74612;SDS011;63119;51.788;8.824;2023-02-02T14:19:05;7.68;;;3.20;;
74612;SDS011;63119;51.788;8.824;2023-02-02T14:31:59;8.68;;;4.13;;
74612;SDS011;63119;51.788;8.824;2023-02-02T14:34:30;8.07;;;3.63;;
74612;SDS011;63119;51.788;8.824;2023-02-02T14:42:28;6.38;;;3.47;;
74612;SDS011;63119;51.788;8.824;2023-02-02T14:45:15;10.07;;;3.70;;
74612;SDS011;63119;51.788;8.824;2023-02-02T14:47:53;6.88;;;3.13;;
74612;SDS011;63119;51.788;8.824;2023-02-02T14:50:22;6.88;;;4.38;;
74612;SDS011;63119;51.788;8.824;2023-02-02T14:52:55;8.73;;;4.18;;
74612;SDS011;63119;51.788;8.824;2023-02-02T14:55:24;10.52;;;4.18;;
74612;SDS011;63119;51.788;8.824;2023-02-02T14:57:54;10.48;;;4.25;;
74612;SDS011;63119;51.788;8.824;2023-02-02T15:00:23;7.82;;;4.00;;
74612;SDS011;63119;51.788;8.824;2023-02-02T15:02:51;8.60;;;3.75;;
74612;SDS011;63119;51.788;8.824;2023-02-02T15:08:19;9.02;;;3.65;;
74612;SDS011;63119;51.788;8.824;2023-02-02T15:13:15;7.47;;;4.00;;
74612;SDS011;63119;51.788;8.824;2023-02-02T15:15:42;5.93;;;3.63;;
74612;SDS011;63119;51.788;8.824;2023-02-02T15:18:13;7.35;;;3.88;;
74612;SDS011;63119;51.788;8.824;2023-02-02T15:20:46;9.40;;;3.40;;
74612;SDS011;63119;51.788;8.824;2023-02-02T15:26:05;8.15;;;3.55;;
74612;SDS011;63119;51.788;8.824;2023-02-02T15:31:07;7.60;;;3.70;;
74612;SDS011;63119;51.788;8.824;2023-02-02T15:33:41;6.50;;;3.13;;
74612;SDS011;63119;51.788;8.824;2023-02-02T15:36:23;5.88;;;3.28;;
74612;SDS011;63119;51.788;8.824;2023-02-02T15:38:51;5.03;;;3.33;;
74612;SDS011;63119;51.788;8.824;2023-02-02T15:41:20;8.57;;;4.13;;
74612;SDS011;63119;51.788;8.824;2023-02-02T15:43:49;8.98;;;3.42;;
74612;SDS011;63119;51.788;8.824;2023-02-02T15:46:16;6.82;;;3.83;;
74612;SDS011;63119;51.788;8.824;2023-02-02T15:49:12;8.45;;;4.00;;
74612;SDS011;63119;51.788;8.824;2023-02-02T15:51:50;7.60;;;5.03;;
74612;SDS011;63119;51.788;8.824;2023-02-02T15:54:33;10.50;;;4.75;;
74612;SDS011;63119;51.788;8.824;2023-02-02T15:57:02;8.57;;;4.38;;
74612;SDS011;63119;51.788;8.824;2023-02-02T15:59:29;7.80;;;4.43;;
74612;SDS011;63119;51.788;8.824;2023-02-02T16:02:07;10.77;;;4.30;;
74612;SDS011;63119;51.788;8.824;2023-02-02T16:04:51;9.02;;;3.67;;
74612;SDS011;63119;51.788;8.824;2023-02-02T16:07:17;5.67;;;3.60;;
74612;SDS011;63119;51.788;8.824;2023-02-02T16:09:47;6.90;;;3.42;;
74612;SDS011;63119;51.788;8.824;2023-02-02T16:12:13;7.88;;;3.58;;
74612;SDS011;63119;51.788;8.824;2023-02-02T16:14:42;5.60;;;2.88;;
74612;SDS011;63119;51.788;8.824;2023-02-02T16:17:18;7.90;;;3.35;;
74612;SDS011;63119;51.788;8.824;2023-02-02T16:19:46;5.78;;;3.28;;
74612;SDS011;63119;51.788;8.824;2023-02-02T16:22:14;5.47;;;3.05;;
74612;SDS011;63119;51.788;8.824;2023-02-02T16:24:43;6.45;;;3.20;;
74612;SDS011;63119;51.788;8.824;2023-02-02T16:27:13;5.35;;;2.90;;
74612;SDS011;63119;51.788;8.824;2023-02-02T16:29:43;7.00;;;2.70;;
74612;SDS011;63119;51.788;8.824;2023-02-02T16:32:24;7.95;;;3.20;;
74612;SDS011;63119;51.788;8.824;2023-02-02T16:34:55;7.03;;;3.15;;
74612;SDS011;63119;51.788;8.824;2023-02-02T16:39:51;8.57;;;4.30;;
74612;SDS011;63119;51.788;8.824;2023-02-02T16:42:22;8.63;;;4.97;;
74612;SDS011;63119;51.788;8.824;2023-02-02T16:44:49;8.98;;;4.75;;
74612;SDS011;63119;51.788;8.824;2023-02-02T16:49:52;11.85;;;4.53;;
74612;SDS011;63119;51.788;8.824;2023-02-02T16:52:29;7.72;;;4.22;;
74612;SDS011;63119;51.788;8.824;2023-02-02T16:54:55;9.13;;;4.20;;
74612;SDS011;63119;51.788;8.824;2023-02-02T16:57:31;6.97;;;4.05;;
74612;SDS011;63119;51.788;8.824;2023-02-02T17:00:02;7.47;;;2.88;;
74612;SDS011;63119;51.788;8.824;2023-02-02T17:02:37;5.18;;;2.67;;
74612;SDS011;63119;51.788;8.824;2023-02-02T17:07:32;7.85;;;2.67;;
74612;SDS011;63119;51.788;8.824;2023-02-02T17:10:17;5.65;;;2.95;;
74612;SDS011;63119;51.788;8.824;2023-02-02T17:12:46;6.28;;;2.95;;
74612;SDS011;63119;51.788;8.824;2023-02-02T17:17:40;7.80;;;3.40;;
74612;SDS011;63119;51.788;8.824;2023-02-02T17:20:05;5.70;;;4.07;;
74612;SDS011;63119;51.788;8.824;2023-02-02T17:22:31;8.15;;;4.43;;
74612;SDS011;63119;51.788;8.824;2023-02-02T17:25:01;10.20;;;4.97;;